createdAt,value
2023-03-04T00:01:16.252Z,51.69
2023-03-04T00:03:42.836Z,52.35
2023-03-04T00:06:09.520Z,52.53
2023-03-04T00:08:36.074Z,53.15
2023-03-04T00:11:02.770Z,53.50
2023-03-04T00:13:29.324Z,53.74
2023-03-04T00:15:56.016Z,52.13
2023-03-04T00:18:22.731Z,51.76
2023-03-04T00:20:50.520Z,51.93
2023-03-04T00:23:17.468Z,52.27
2023-03-04T00:25:43.998Z,51.17
2023-03-04T00:28:10.516Z,50.42
2023-03-04T00:30:37.061Z,50.34
2023-03-04T00:33:03.632Z,50.70
2023-03-04T00:35:30.473Z,50.14
2023-03-04T00:37:57.070Z,50.71
2023-03-04T00:40:24.009Z,50.83
2023-03-04T00:42:50.600Z,51.59
2023-03-04T00:45:17.120Z,50.86
2023-03-04T00:47:43.636Z,50.87
2023-03-04T00:50:10.794Z,52.52
2023-03-04T00:52:37.904Z,51.70
2023-03-04T00:55:05.242Z,51.79
2023-03-04T00:57:31.773Z,52.01
2023-03-04T00:59:58.345Z,53.24
2023-03-04T01:02:24.932Z,52.48
2023-03-04T01:04:51.524Z,53.11
2023-03-04T01:07:18.621Z,53.58
2023-03-04T01:09:45.110Z,52.91
2023-03-04T01:12:12.183Z,53.44
2023-03-04T01:14:38.869Z,51.98
2023-03-04T01:17:05.427Z,51.66
2023-03-04T01:19:32.053Z,51.95
2023-03-04T01:21:58.572Z,52.81
2023-03-04T01:24:25.146Z,54.07
2023-03-04T01:26:51.646Z,53.10
2023-03-04T01:29:18.473Z,52.67
2023-03-04T01:31:44.978Z,52.31
2023-03-04T01:34:11.569Z,52.41
2023-03-04T01:36:38.056Z,51.53
2023-03-04T01:39:04.888Z,51.73
2023-03-04T01:41:31.651Z,52.19
2023-03-04T01:44:01.490Z,51.99
2023-03-04T01:46:29.302Z,50.31
2023-03-04T01:48:56.190Z,50.35
2023-03-04T01:51:23.095Z,51.31
2023-03-04T01:53:53.219Z,51.15
2023-03-04T01:56:24.216Z,50.89
2023-03-04T01:59:13.838Z,50.27
2023-03-04T02:01:43.860Z,50.74
2023-03-04T02:04:11.350Z,50.66
2023-03-04T02:06:39.793Z,51.62
2023-03-04T02:09:07.879Z,50.42
2023-03-04T02:11:36.143Z,50.14
2023-03-04T02:14:02.871Z,51.12
2023-03-04T02:16:29.460Z,50.01
2023-03-04T02:18:56.040Z,49.64
2023-03-04T02:21:29.130Z,50.31
2023-03-04T02:24:11.540Z,49.85
2023-03-04T02:26:41.385Z,49.67
2023-03-04T02:29:10.714Z,50.22
2023-03-04T02:31:40.144Z,50.06
2023-03-04T02:34:12.124Z,49.83
2023-03-04T02:36:40.080Z,49.77
2023-03-04T02:39:22.025Z,49.22
2023-03-04T02:41:50.896Z,49.15
2023-03-04T02:44:30.425Z,49.75
2023-03-04T02:46:57.819Z,48.92
2023-03-04T02:49:27.068Z,48.30
2023-03-04T02:51:59.920Z,48.51
2023-03-04T02:54:26.514Z,48.26
2023-03-04T02:56:54.892Z,48.44
2023-03-04T02:59:22.661Z,49.48
2023-03-04T03:01:50.414Z,50.59
2023-03-04T03:04:18.417Z,50.24
2023-03-04T03:06:45.128Z,49.22
2023-03-04T03:09:11.916Z,49.05
2023-03-04T03:11:38.649Z,48.60
2023-03-04T03:14:05.657Z,48.86
2023-03-04T03:16:32.316Z,50.04
2023-03-04T03:18:58.932Z,50.77
2023-03-04T03:21:25.498Z,51.84
2023-03-04T03:23:52.100Z,51.96
2023-03-04T03:26:19.247Z,51.14
2023-03-04T03:28:46.038Z,51.30
2023-03-04T03:31:13.027Z,51.67
2023-03-04T03:33:39.588Z,51.96
2023-03-04T03:36:07.037Z,50.98
2023-03-04T03:38:34.126Z,51.10
2023-03-04T03:41:00.707Z,52.53
2023-03-04T03:43:27.389Z,51.64
2023-03-04T03:45:54.029Z,51.14
2023-03-04T03:48:20.628Z,52.18
2023-03-04T03:50:47.143Z,51.69
2023-03-04T03:53:14.024Z,51.57
2023-03-04T03:55:40.626Z,51.37
2023-03-04T03:58:07.346Z,50.76
2023-03-04T04:00:33.875Z,51.22
2023-03-04T04:03:01.155Z,51.94
2023-03-04T04:05:27.786Z,52.21
2023-03-04T04:07:54.399Z,51.03
2023-03-04T04:10:21.618Z,51.54
2023-03-04T04:12:48.304Z,50.45
2023-03-04T04:15:15.142Z,50.49
2023-03-04T04:17:41.693Z,50.43
2023-03-04T04:20:09.049Z,49.91
2023-03-04T04:22:35.682Z,49.33
2023-03-04T04:25:02.256Z,49.13
2023-03-04T04:27:28.819Z,48.71
2023-03-04T04:29:55.418Z,48.75
2023-03-04T04:32:22.834Z,51.83
2023-03-04T04:34:49.437Z,50.15
2023-03-04T04:37:16.233Z,49.75
2023-03-04T04:39:42.871Z,49.55
2023-03-04T04:42:11.062Z,49.42
2023-03-04T04:44:39.018Z,49.13
2023-03-04T04:47:10.103Z,49.32
2023-03-04T04:49:36.718Z,49.40
2023-03-04T04:52:03.503Z,49.27
2023-03-04T04:54:30.566Z,49.54
2023-03-04T04:56:57.129Z,48.85
2023-03-04T04:59:24.017Z,48.43
2023-03-04T05:01:50.597Z,49.48
2023-03-04T05:04:17.420Z,49.25
2023-03-04T05:06:44.178Z,50.08
2023-03-04T05:09:10.900Z,50.36
2023-03-04T05:11:37.466Z,50.37
2023-03-04T05:14:04.072Z,50.52
2023-03-04T05:16:30.859Z,50.19
2023-03-04T05:18:57.764Z,49.55
2023-03-04T05:21:24.831Z,49.24
2023-03-04T05:23:52.332Z,50.95
2023-03-04T05:26:19.309Z,51.14
2023-03-04T05:28:46.059Z,51.21
2023-03-04T05:31:12.991Z,50.47
2023-03-04T05:33:40.052Z,49.99
2023-03-04T05:36:07.025Z,52.65
2023-03-04T05:38:34.038Z,51.32
2023-03-04T05:41:03.513Z,50.18
2023-03-04T05:43:30.751Z,50.51
2023-03-04T05:45:57.368Z,51.42
2023-03-04T05:48:24.313Z,52.07
2023-03-04T05:50:58.742Z,50.55
2023-03-04T05:53:25.894Z,52.85
2023-03-04T05:55:52.792Z,52.37
2023-03-04T05:58:19.688Z,52.19
2023-03-04T06:00:46.495Z,51.98
2023-03-04T06:03:18.193Z,52.65
2023-03-04T06:05:44.844Z,51.65
2023-03-04T06:08:12.611Z,51.30
2023-03-04T06:10:40.506Z,51.64
2023-03-04T06:13:07.980Z,50.93
2023-03-04T06:15:34.760Z,50.83
2023-03-04T06:18:01.363Z,51.74
2023-03-04T06:20:28.089Z,51.41
2023-03-04T06:22:54.804Z,51.16
2023-03-04T06:25:21.874Z,51.40
2023-03-04T06:27:50.646Z,54.38
2023-03-04T06:30:18.236Z,55.27
2023-03-04T06:32:46.167Z,53.83
2023-03-04T06:35:13.663Z,54.07
2023-03-04T06:37:40.353Z,54.77
2023-03-04T06:40:08.049Z,54.58
2023-03-04T06:42:35.663Z,52.72
2023-03-04T06:45:03.175Z,53.07
2023-03-04T06:47:30.122Z,53.00
2023-03-04T06:49:56.841Z,53.13
2023-03-04T06:52:23.477Z,53.51
2023-03-04T06:54:50.185Z,53.61
2023-03-04T06:57:16.766Z,53.98
2023-03-04T06:59:43.395Z,53.67
2023-03-04T07:02:13.430Z,53.49
2023-03-04T07:04:40.363Z,52.87
2023-03-04T07:07:07.030Z,53.71
2023-03-04T07:09:33.568Z,56.54
2023-03-04T07:12:00.147Z,54.20
2023-03-04T07:14:27.925Z,54.03
2023-03-04T07:16:54.747Z,53.42
2023-03-04T07:19:21.814Z,53.51
2023-03-04T07:21:48.640Z,53.80
2023-03-04T07:24:15.689Z,53.87
2023-03-04T07:26:42.279Z,55.52
2023-03-04T07:29:09.154Z,56.39
2023-03-04T07:31:37.046Z,56.96
2023-03-04T07:34:05.839Z,58.03
2023-03-04T07:36:33.825Z,57.90
2023-03-04T07:39:00.454Z,56.48
2023-03-04T07:41:28.471Z,56.02
2023-03-04T07:43:57.005Z,56.49
2023-03-04T07:46:23.587Z,56.67
2023-03-04T07:48:50.691Z,56.81
2023-03-04T07:51:23.092Z,56.85
2023-03-04T07:53:51.700Z,55.28
2023-03-04T07:56:21.070Z,54.97
2023-03-04T07:58:48.077Z,54.04
2023-03-04T08:01:17.493Z,53.25
2023-03-04T08:03:44.359Z,54.38
2023-03-04T08:06:13.160Z,56.05
2023-03-04T08:08:40.185Z,59.13
2023-03-04T08:11:09.955Z,58.67
2023-03-04T08:13:36.981Z,56.52
2023-03-04T08:16:04.124Z,57.18
2023-03-04T08:18:30.776Z,57.32
2023-03-04T08:20:57.474Z,56.55
2023-03-04T08:23:24.108Z,56.46
2023-03-04T08:25:53.323Z,54.85
2023-03-04T08:28:20.069Z,57.25
2023-03-04T08:30:53.002Z,55.04
2023-03-04T08:33:19.928Z,54.19
2023-03-04T08:35:46.521Z,53.68
2023-03-04T08:38:13.115Z,52.37
2023-03-04T08:40:39.735Z,52.78
2023-03-04T08:43:06.352Z,52.81
2023-03-04T08:45:33.060Z,54.75
2023-03-04T08:47:59.870Z,52.74
2023-03-04T08:50:27.511Z,51.37
2023-03-04T08:52:54.270Z,50.56
2023-03-04T08:55:20.959Z,50.69
2023-03-04T08:57:47.523Z,48.25
2023-03-04T09:00:14.496Z,49.85
2023-03-04T09:02:41.061Z,49.70
2023-03-04T09:05:08.489Z,51.26
2023-03-04T09:07:35.106Z,54.20
2023-03-04T09:10:01.849Z,54.91
2023-03-04T09:12:29.065Z,55.13
2023-03-04T09:15:09.783Z,54.64
2023-03-04T09:17:37.299Z,55.25
2023-03-04T09:20:04.870Z,58.21
2023-03-04T09:22:31.928Z,57.74
2023-03-04T09:24:58.864Z,57.15
2023-03-04T09:27:26.131Z,56.20
2023-03-04T09:29:52.752Z,55.95
2023-03-04T09:32:19.439Z,57.23
2023-03-04T09:34:46.557Z,56.34
2023-03-04T09:37:13.233Z,56.16
2023-03-04T09:39:39.799Z,56.89
2023-03-04T09:42:09.490Z,55.67
2023-03-04T09:44:44.114Z,56.39
2023-03-04T09:47:13.710Z,57.20
2023-03-04T09:49:43.877Z,56.64
2023-03-04T09:52:23.183Z,56.88
2023-03-04T09:54:55.626Z,57.35
2023-03-04T09:57:30.734Z,57.91
2023-03-04T10:00:07.763Z,56.56
2023-03-04T10:02:58.773Z,57.42
2023-03-04T10:05:26.449Z,56.36
2023-03-04T10:07:58.991Z,56.33
2023-03-04T10:10:28.401Z,57.66
2023-03-04T10:12:55.992Z,58.91
2023-03-04T10:15:34.394Z,58.15
2023-03-04T10:18:06.481Z,58.88
2023-03-04T10:20:49.404Z,60.79
2023-03-04T10:23:19.866Z,62.11
2023-03-04T10:25:46.953Z,61.05
2023-03-04T10:28:17.793Z,60.57
2023-03-04T10:30:57.268Z,60.48
2023-03-04T10:33:27.498Z,63.56
2023-03-04T10:36:25.342Z,62.79
2023-03-04T10:39:12.913Z,62.47
2023-03-04T10:41:44.621Z,62.80
2023-03-04T10:44:18.136Z,62.52
2023-03-04T10:46:47.587Z,63.00
2023-03-04T10:49:16.628Z,63.58
2023-03-04T10:51:51.513Z,63.90
2023-03-04T10:54:49.141Z,62.44
2023-03-04T10:57:27.490Z,61.01
2023-03-04T10:59:59.439Z,64.39
2023-03-04T11:02:29.428Z,63.47
2023-03-04T11:05:08.144Z,65.56
2023-03-04T11:07:54.030Z,67.36
2023-03-04T11:10:37.260Z,68.25
2023-03-04T11:13:24.983Z,68.94
2023-03-04T11:15:59.157Z,67.68
2023-03-04T11:18:50.583Z,68.44
2023-03-04T11:21:20.722Z,67.02
2023-03-04T11:23:50.328Z,66.52
2023-03-04T11:26:20.362Z,64.08
2023-03-04T11:29:13.966Z,61.49
2023-03-04T11:31:47.748Z,58.04
2023-03-04T11:34:42.683Z,58.36
2023-03-04T11:37:19.480Z,59.31
2023-03-04T11:39:57.189Z,58.88
2023-03-04T11:42:23.834Z,61.69
2023-03-04T11:44:51.245Z,64.04
2023-03-04T11:47:36.138Z,63.53
2023-03-04T11:51:05.637Z,65.53
2023-03-04T11:53:50.472Z,65.80
2023-03-04T11:56:17.067Z,64.82
2023-03-04T11:59:35.252Z,62.86
2023-03-04T12:02:11.154Z,63.08
2023-03-04T12:04:37.856Z,66.04
2023-03-04T12:07:16.617Z,65.92
2023-03-04T12:10:09.442Z,68.01
2023-03-04T12:13:15.099Z,69.25
2023-03-04T12:15:50.340Z,69.01
2023-03-04T12:18:41.108Z,69.58
2023-03-04T12:21:10.691Z,70.90
2023-03-04T12:23:55.583Z,70.43
2023-03-04T12:26:43.958Z,68.76
2023-03-04T12:29:26.723Z,66.80
2023-03-04T12:32:16.305Z,68.61
2023-03-04T12:34:55.030Z,68.71
2023-03-04T12:37:50.012Z,67.80
2023-03-04T12:40:45.906Z,67.55
2023-03-04T12:43:39.511Z,65.83
2023-03-04T12:46:19.194Z,65.49
2023-03-04T12:49:13.230Z,67.52
2023-03-04T12:52:18.194Z,66.60
2023-03-04T12:54:52.928Z,66.50
2023-03-04T12:57:23.451Z,68.16
2023-03-04T13:00:08.851Z,67.24
2023-03-04T13:03:08.581Z,66.72
2023-03-04T13:06:04.156Z,68.26
2023-03-04T13:08:37.029Z,68.66
2023-03-04T13:11:26.440Z,67.31
2023-03-04T13:14:24.062Z,68.14
2023-03-04T13:17:01.669Z,67.85
2023-03-04T13:19:45.152Z,66.96
2023-03-04T13:22:35.774Z,65.91
2023-03-04T13:25:29.646Z,66.22
2023-03-04T13:28:02.821Z,65.63
2023-03-04T13:30:32.166Z,66.10
2023-03-04T13:33:19.242Z,65.92
2023-03-04T13:35:49.183Z,65.70
2023-03-04T13:38:29.683Z,65.06
2023-03-04T13:41:08.351Z,63.58
2023-03-04T13:43:49.021Z,63.77
2023-03-04T13:46:18.912Z,65.08
2023-03-04T13:48:51.552Z,64.49
2023-03-04T13:51:31.662Z,63.83
2023-03-04T13:53:58.195Z,63.20
2023-03-04T13:56:47.959Z,61.74
2023-03-04T13:59:21.947Z,62.71
2023-03-04T14:01:56.817Z,63.94
2023-03-04T14:04:34.662Z,65.22
2023-03-04T14:07:17.935Z,64.46
2023-03-04T14:09:58.064Z,64.59
2023-03-04T14:12:25.829Z,63.60
2023-03-04T14:14:55.018Z,63.89
2023-03-04T14:17:35.124Z,62.81
2023-03-04T14:20:02.996Z,61.59
2023-03-04T14:22:33.989Z,60.00
2023-03-04T14:25:08.069Z,57.95
2023-03-04T14:27:36.438Z,56.95
2023-03-04T14:30:20.406Z,56.57
2023-03-04T14:32:49.114Z,55.20
2023-03-04T14:35:29.836Z,54.69
2023-03-04T14:38:32.923Z,54.52
2023-03-04T14:41:06.832Z,53.06
2023-03-04T14:43:39.956Z,53.07
2023-03-04T14:46:08.977Z,53.75
2023-03-04T14:48:35.597Z,53.48
2023-03-04T14:51:02.852Z,53.99
2023-03-04T14:53:31.554Z,54.53
2023-03-04T14:56:08.279Z,53.27
2023-03-04T14:58:40.220Z,52.81
2023-03-04T15:01:20.464Z,53.85
2023-03-04T15:04:13.764Z,52.57
2023-03-04T15:06:51.785Z,53.85
2023-03-04T15:09:22.588Z,53.10
2023-03-04T15:12:03.648Z,53.41
2023-03-04T15:14:47.640Z,52.71
2023-03-04T15:17:37.528Z,51.66
2023-03-04T15:20:06.899Z,51.14
2023-03-04T15:22:34.661Z,52.26
2023-03-04T15:25:01.340Z,52.12
2023-03-04T15:27:28.962Z,52.21
2023-03-04T15:29:59.222Z,52.85
2023-03-04T15:32:29.998Z,53.20
2023-03-04T15:34:57.562Z,54.18
2023-03-04T15:37:29.800Z,53.78
2023-03-04T15:39:57.999Z,54.10
2023-03-04T15:42:25.029Z,54.19
2023-03-04T15:44:51.962Z,54.22
2023-03-04T15:47:19.150Z,53.67
2023-03-04T15:49:49.076Z,53.02
2023-03-04T15:52:19.791Z,52.45
2023-03-04T15:54:47.141Z,52.71
2023-03-04T15:57:34.058Z,52.04
2023-03-04T16:00:00.605Z,52.13
2023-03-04T16:02:27.743Z,52.46
2023-03-04T16:04:54.456Z,52.20
2023-03-04T16:07:24.655Z,51.64
2023-03-04T16:09:57.743Z,52.79
2023-03-04T16:12:25.025Z,52.89
2023-03-04T16:14:52.714Z,53.47
2023-03-04T16:17:19.935Z,53.15
2023-03-04T16:19:46.832Z,52.62
2023-03-04T16:22:19.473Z,51.94
2023-03-04T16:24:46.095Z,52.00
2023-03-04T16:27:14.730Z,51.87
2023-03-04T16:29:41.637Z,51.75
2023-03-04T16:32:09.297Z,50.64
2023-03-04T16:34:36.069Z,50.17
2023-03-04T16:37:06.632Z,50.03
2023-03-04T16:39:33.492Z,50.26
2023-03-04T16:42:00.253Z,50.17
2023-03-04T16:44:26.898Z,50.84
2023-03-04T16:46:53.749Z,50.27
2023-03-04T16:49:20.842Z,50.48
2023-03-04T16:51:49.537Z,51.52
2023-03-04T16:54:19.370Z,50.87
2023-03-04T16:56:45.941Z,50.10
2023-03-04T16:59:15.510Z,50.04
2023-03-04T17:01:42.856Z,50.60
2023-03-04T17:04:09.697Z,51.38
2023-03-04T17:06:38.425Z,51.75
2023-03-04T17:09:09.444Z,51.25
2023-03-04T17:11:36.201Z,51.89
2023-03-04T17:14:03.710Z,52.35
2023-03-04T17:16:30.470Z,52.25
2023-03-04T17:18:57.394Z,52.57
2023-03-04T17:21:26.788Z,52.14
2023-03-04T17:23:54.280Z,52.62
2023-03-04T17:26:22.609Z,52.67
2023-03-04T17:28:50.482Z,51.65
2023-03-04T17:31:19.396Z,51.60
2023-03-04T17:33:46.604Z,51.78
2023-03-04T17:36:14.018Z,50.63
2023-03-04T17:38:40.779Z,52.78
2023-03-04T17:41:10.332Z,53.11
2023-03-04T17:43:36.927Z,52.96
2023-03-04T17:46:08.961Z,53.74
2023-03-04T17:48:36.275Z,53.61
2023-03-04T17:51:03.162Z,54.90
2023-03-04T17:53:30.173Z,55.27
2023-03-04T17:56:00.506Z,55.33
2023-03-04T17:58:29.456Z,55.77
2023-03-04T18:01:02.339Z,55.17
2023-03-04T18:03:28.965Z,54.52
2023-03-04T18:05:55.587Z,53.96
2023-03-04T18:08:24.026Z,54.26
2023-03-04T18:10:50.950Z,53.77
2023-03-04T18:13:17.779Z,53.35
2023-03-04T18:15:45.123Z,53.13
2023-03-04T18:18:11.976Z,52.95
2023-03-04T18:20:38.866Z,52.03
2023-03-04T18:23:05.469Z,51.11
2023-03-04T18:25:32.089Z,51.00
2023-03-04T18:27:58.755Z,51.73
2023-03-04T18:30:27.455Z,51.44
2023-03-04T18:32:55.781Z,52.19
2023-03-04T18:35:22.579Z,52.38
2023-03-04T18:37:49.721Z,52.15
2023-03-04T18:40:16.884Z,51.38
2023-03-04T18:42:44.285Z,51.09
2023-03-04T18:45:15.652Z,50.80
2023-03-04T18:47:45.253Z,50.72
2023-03-04T18:50:13.155Z,51.21
2023-03-04T18:52:39.924Z,50.81
2023-03-04T18:55:07.038Z,50.79
2023-03-04T18:57:33.728Z,51.18
2023-03-04T19:00:03.056Z,51.53
2023-03-04T19:02:38.919Z,51.86
2023-03-04T19:05:08.831Z,50.60
2023-03-04T19:07:35.778Z,49.95
2023-03-04T19:10:02.693Z,49.74
2023-03-04T19:12:30.198Z,49.56
2023-03-04T19:14:56.756Z,49.87
2023-03-04T19:17:23.296Z,49.73
2023-03-04T19:19:49.820Z,49.84
2023-03-04T19:22:16.449Z,50.34
2023-03-04T19:24:43.791Z,50.98
2023-03-04T19:27:10.432Z,52.44
2023-03-04T19:29:37.387Z,51.75
2023-03-04T19:32:04.158Z,52.63
2023-03-04T19:34:30.859Z,52.94
2023-03-04T19:36:57.506Z,52.55
2023-03-04T19:39:24.379Z,53.68
2023-03-04T19:41:51.329Z,53.98
2023-03-04T19:44:18.555Z,54.97
2023-03-04T19:46:45.508Z,54.88
2023-03-04T19:49:12.350Z,54.71
2023-03-04T19:51:38.925Z,53.38
2023-03-04T19:54:05.603Z,53.56
2023-03-04T19:56:32.106Z,53.27
2023-03-04T19:58:58.948Z,52.38
2023-03-04T20:01:37.462Z,52.00
2023-03-04T20:04:09.974Z,52.10
2023-03-04T20:06:39.169Z,52.67
2023-03-04T20:09:06.094Z,52.41
2023-03-04T20:11:34.716Z,51.97
2023-03-04T20:14:04.486Z,51.68
2023-03-04T20:16:32.334Z,51.68
2023-03-04T20:18:59.536Z,51.16
2023-03-04T20:21:28.542Z,51.01
2023-03-04T20:23:55.713Z,51.36
2023-03-04T20:26:22.435Z,51.76
2023-03-04T20:28:49.495Z,52.05
2023-03-04T20:31:20.978Z,51.67
2023-03-04T20:33:49.077Z,52.50
2023-03-04T20:36:16.567Z,51.50
2023-03-04T20:38:46.195Z,51.30
2023-03-04T20:41:13.118Z,50.72
2023-03-04T20:43:40.039Z,50.87
2023-03-04T20:46:39.184Z,50.57
2023-03-04T20:49:09.035Z,50.49
2023-03-04T20:51:36.649Z,49.74
2023-03-04T20:54:04.496Z,49.71
2023-03-04T20:56:31.944Z,49.73
2023-03-04T20:59:00.949Z,50.71
2023-03-04T21:01:27.640Z,51.25
2023-03-04T21:03:54.244Z,50.83
2023-03-04T21:06:21.189Z,50.78
2023-03-04T21:08:47.777Z,50.33
2023-03-04T21:11:15.453Z,50.82
2023-03-04T21:13:43.207Z,50.84
2023-03-04T21:16:14.570Z,50.75
2023-03-04T21:18:42.018Z,50.84
2023-03-04T21:21:11.413Z,53.20
2023-03-04T21:23:38.786Z,51.83
2023-03-04T21:26:05.556Z,51.20
2023-03-04T21:28:32.293Z,51.93
2023-03-04T21:30:59.107Z,51.58
2023-03-04T21:33:30.697Z,51.59
2023-03-04T21:35:58.364Z,52.25
2023-03-04T21:38:25.079Z,51.75
2023-03-04T21:40:52.800Z,51.12
2023-03-04T21:43:22.952Z,50.56
2023-03-04T21:45:55.226Z,50.95
2023-03-04T21:48:22.750Z,50.37
2023-03-04T21:50:49.359Z,50.27
2023-03-04T21:53:21.341Z,50.48
2023-03-04T21:55:49.537Z,50.35
2023-03-04T21:58:17.195Z,50.00
2023-03-04T22:00:44.128Z,50.70
2023-03-04T22:03:10.959Z,50.57
2023-03-04T22:05:44.579Z,50.83
2023-03-04T22:08:20.907Z,50.59
2023-03-04T22:10:48.444Z,50.82
2023-03-04T22:13:15.793Z,50.45
2023-03-04T22:15:43.916Z,50.61
2023-03-04T22:18:12.922Z,50.74
2023-03-04T22:20:41.658Z,50.32
2023-03-04T22:23:08.845Z,49.95
2023-03-04T22:25:37.148Z,50.67
2023-03-04T22:28:04.453Z,50.23
2023-03-04T22:30:32.227Z,49.29
2023-03-04T22:32:58.755Z,48.99
2023-03-04T22:35:25.398Z,49.48
2023-03-04T22:37:52.306Z,49.49
2023-03-04T22:40:19.308Z,50.91
2023-03-04T22:42:47.120Z,52.29
2023-03-04T22:45:15.582Z,51.51
2023-03-04T22:47:50.386Z,50.55
2023-03-04T22:50:17.608Z,51.12
2023-03-04T22:52:44.346Z,50.95
2023-03-04T22:55:12.301Z,51.32
2023-03-04T22:57:39.185Z,50.71
2023-03-04T23:00:20.659Z,51.15
2023-03-04T23:02:47.210Z,50.32
2023-03-04T23:05:13.979Z,51.64
2023-03-04T23:07:41.222Z,50.72
2023-03-04T23:10:13.361Z,50.47
2023-03-04T23:12:40.125Z,50.56
2023-03-04T23:15:08.304Z,49.78
2023-03-04T23:17:35.106Z,49.97
2023-03-04T23:20:01.954Z,49.83
2023-03-04T23:22:28.500Z,50.68
2023-03-04T23:24:57.351Z,50.27
2023-03-04T23:27:24.870Z,51.23
2023-03-04T23:29:52.144Z,51.13
2023-03-04T23:32:19.155Z,50.00
2023-03-04T23:34:45.702Z,49.80
2023-03-04T23:37:12.218Z,49.61
2023-03-04T23:39:38.795Z,49.99
2023-03-04T23:42:05.861Z,50.41
2023-03-04T23:44:32.873Z,50.22
2023-03-04T23:46:59.523Z,50.61
2023-03-04T23:49:26.398Z,49.70
2023-03-04T23:51:52.988Z,50.57
2023-03-04T23:54:19.554Z,50.00
2023-03-04T23:56:46.112Z,49.90
2023-03-04T23:59:12.765Z,49.28
